This is the latest recevied weather packets stored in our database for station/object N4QD-13. If no packets are shown the sender has not sent any weather packets the latest 1 day(s).
| Time | Temp. | Humidity | Pressure | Rain* | Wind** | Luminosity | Snow |
|---|---|---|---|---|---|---|---|
| 1778056861 | 20° C | 62% | 1010.6 hPa | 0 mm | - | 0 W/m² | - |
| 1778056558 | 20.56° C | 60% | 1010.5 hPa | 0 mm | - | 0 W/m² | - |
| 1778055648 | 20.56° C | 59% | 1010.5 hPa | 0 mm | - | 0 W/m² | - |
| 1778055346 | 20.56° C | 59% | 1010.5 hPa | 0 mm | - | 0 W/m² | - |
| 1778055043 | 20° C | 60% | 1010.6 hPa | 0 mm | - | 0 W/m² | - |
| 1778054741 | 20° C | 60% | 1010.6 hPa | 0 mm | - | 0 W/m² | - |
| 1778054438 | 20° C | 60% | 1010.6 hPa | 0 mm | - | 0 W/m² | - |
| 1778053832 | 20° C | 60% | 1010.6 hPa | 0 mm | - | 0 W/m² | - |
| 1778053227 | 19.44° C | 61% | 1011 hPa | 0 mm | - | 0 W/m² | - |
| 1778051714 | 18.89° C | 61% | 1010.8 hPa | 0 mm | - | 0 W/m² | - |
| 1778051411 | 18.89° C | 61% | 1010.7 hPa | 0 mm | - | 0 W/m² | - |
| 1778050503 | 19.44° C | 60% | 1010.9 hPa | 0 mm | - | 0 W/m² | - |
| 1778050199 | 19.44° C | 60% | 1010.9 hPa | 0 mm | - | 0 W/m² | - |
| 1778049896 | 18.89° C | 60% | 1010.9 hPa | 0 mm | - | 0 W/m² | - |
| 1778049592 | 18.89° C | 60% | 1010.9 hPa | 0 mm | - | 0 W/m² | - |
| 1778048987 | 18.89° C | 61% | 1011.1 hPa | 0 mm | - | 0 W/m² | - |
| 1778048078 | 18.89° C | 60% | 1011.5 hPa | 0 mm | - | 0 W/m² | - |
| 1778047776 | 18.89° C | 59% | 1011.5 hPa | 0 mm | - | 0 W/m² | - |
| 1778047474 | 18.89° C | 60% | 1011.7 hPa | 0 mm | - | 0 W/m² | - |
| 1778047170 | 18.33° C | 62% | 1011.5 hPa | 0 mm | - | 0 W/m² | - |
| 1778046868 | 18.89° C | 61% | 1011.6 hPa | 0 mm | - | 0 W/m² | - |
| 1778046564 | 18.33° C | 61% | 1012 hPa | 0 mm | - | 0 W/m² | - |
| 1778045957 | 19.44° C | 60% | 1011.9 hPa | 0 mm | - | 0 W/m² | - |
| 1778045656 | 20° C | 56% | 1012 hPa | 0 mm | - | 0 W/m² | - |
| 1778045354 | 20° C | 56% | 1012 hPa | 0 mm | - | 0 W/m² | - |
* Rain latest hour (hover to see other rain measurements)
** Current wind speed in m/s (hover to see current wind gust speed)